Time;durP1;ratioP1;P1;durP2;ratioP2;P2;SDS_P1;SDS_P2;PMS_P1;PMS_P2;Temp;Humidity;BMP_temperature;BMP_pressure;BME280_temperature;BME280_humidity;BME280_pressure;Samples;Min_cycle;Max_cycle;Signal;HPM_P1;HPM_P2
2023/04/13 00:02:54;;;;;;;75.00;38.60;;;;;;;10.47;72.61;99336.96;681387;1268;138687;-80
2023/04/13 00:17:58;;;;;;;42.30;23.50;;;;;;;10.65;73.25;99313.95;681491;1264;138733;-78
2023/04/13 00:33:02;;;;;;;48.30;26.60;;;;;;;10.74;73.94;99316.72;681436;1269;139513;-80
2023/04/13 00:48:09;;;;;;;59.60;33.00;;;;;;;10.63;73.54;99320.06;681683;1263;138648;-81
2023/04/13 01:03:12;;;;;;;47.40;24.10;;;;;;;10.22;75.27;99289.11;681444;1267;138769;-81
2023/04/13 01:18:17;;;;;;;40.10;23.60;;;;;;;10.43;77.50;99268.73;681411;1269;138826;-80
2023/04/13 01:33:21;;;;;;;34.20;20.80;;;;;;;10.67;77.35;99283.90;681544;1265;138580;-84
2023/04/13 01:48:38;;;;;;;59.00;27.20;;;;;;;10.64;76.78;99293.08;681742;1269;138676;-80
2023/04/13 02:04:08;;;;;;;72.30;33.80;;;;;;;10.65;77.48;99300.52;681213;1267;139190;-80
2023/04/13 02:19:14;;;;;;;83.90;40.30;;;;;;;10.75;77.17;99310.30;681387;1267;139071;-80
2023/04/13 02:34:17;;;;;;;74.00;34.50;;;;;;;11.05;77.54;99312.64;681468;1267;138739;-80
2023/04/13 02:49:20;;;;;;;43.50;24.40;;;;;;;11.18;77.20;99327.86;681508;1267;138836;-86
2023/04/13 03:04:44;;;;;;;51.30;27.80;;;;;;;11.31;77.12;99324.95;681529;1266;137617;-80
2023/04/13 03:19:49;;;;;;;65.60;34.20;;;;;;;11.36;77.15;99308.98;681366;1263;138995;-81
2023/04/13 03:34:54;;;;;;;53.70;29.70;;;;;;;11.42;76.51;99323.09;681552;1264;139411;-82
2023/04/13 03:49:58;;;;;;;56.80;32.60;;;;;;;11.49;77.52;99350.69;681346;1266;139487;-82
2023/04/13 04:05:04;;;;;;;43.50;22.60;;;;;;;11.42;77.21;99350.32;681456;1263;139294;-81
2023/04/13 04:20:09;;;;;;;51.60;30.20;;;;;;;11.58;76.75;99364.24;681352;1264;138828;-81
2023/04/13 04:35:15;;;;;;;50.60;26.90;;;;;;;11.69;77.09;99377.13;681572;1266;139581;-81
2023/04/13 04:50:24;;;;;;;57.80;33.70;;;;;;;11.79;77.19;99362.56;681338;1267;138891;-82
2023/04/13 05:05:36;;;;;;;38.40;22.50;;;;;;;11.82;77.16;99347.13;681611;1269;139340;-80
2023/04/13 05:20:43;;;;;;;40.60;23.90;;;;;;;12.20;77.19;99351.02;681535;1268;139225;-80
2023/04/13 05:35:46;;;;;;;59.00;33.50;;;;;;;12.45;77.46;99346.11;681612;1267;139295;-80
2023/04/13 05:50:58;;;;;;;37.20;21.90;;;;;;;12.72;77.37;99362.29;681263;1267;139050;-82
2023/04/13 06:06:04;;;;;;;65.90;31.90;;;;;;;13.10;76.29;99372.09;681389;1266;138745;-81
2023/04/13 06:21:07;;;;;;;46.50;24.10;;;;;;;13.51;75.25;99374.86;681441;1263;139245;-81
2023/04/13 06:36:11;;;;;;;35.70;19.60;;;;;;;13.97;74.05;99377.80;681368;1265;138874;-82
2023/04/13 06:51:14;;;;;;;47.70;24.80;;;;;;;14.25;72.78;99368.23;681223;1267;138974;-81
2023/04/13 07:06:18;;;;;;;32.60;19.30;;;;;;;14.60;71.89;99361.23;681638;1265;139452;-81
2023/04/13 07:21:21;;;;;;;36.30;20.50;;;;;;;15.10;70.65;99369.02;681329;1268;139052;-84
2023/04/13 07:36:31;;;;;;;28.30;19.10;;;;;;;16.02;69.13;99365.96;681489;1263;139005;-82
2023/04/13 07:51:39;;;;;;;32.50;19.40;;;;;;;16.86;66.01;99355.73;681423;1267;139773;-82
2023/04/13 08:06:43;;;;;;;26.40;16.50;;;;;;;17.83;65.47;99357.41;681475;1266;138981;-84
2023/04/13 08:21:46;;;;;;;23.60;15.70;;;;;;;18.42;63.52;99356.94;681345;1269;138798;-84
2023/04/13 08:36:49;;;;;;;25.90;15.70;;;;;;;19.06;62.39;99347.58;681404;1267;138917;-84
2023/04/13 08:51:58;;;;;;;29.10;17.60;;;;;;;19.83;60.99;99344.15;681283;1264;138632;-84
2023/04/13 09:07:03;;;;;;;25.30;17.00;;;;;;;20.11;58.57;99351.73;681501;1267;137194;-83
2023/04/13 09:22:12;;;;;;;25.10;16.70;;;;;;;20.16;57.82;99362.30;681364;1266;138036;-83
2023/04/13 09:37:17;;;;;;;23.60;16.10;;;;;;;19.51;56.95;99354.97;681460;1263;138224;-82
2023/04/13 09:52:22;;;;;;;21.80;15.20;;;;;;;19.80;56.16;99357.07;681474;1268;138195;-83
2023/04/13 10:07:28;;;;;;;27.30;17.30;;;;;;;20.11;55.68;99366.75;681585;1266;138440;-81
2023/04/13 10:22:32;;;;;;;25.30;17.00;;;;;;;19.55;54.78;99371.02;681375;1269;138932;-83
2023/04/13 10:37:38;;;;;;;54.50;30.30;;;;;;;20.01;54.29;99379.02;681270;1267;138169;-83
2023/04/13 10:52:52;;;;;;;24.20;15.90;;;;;;;20.93;53.72;99380.92;681783;1266;138453;-83
2023/04/13 11:07:55;;;;;;;24.10;18.20;;;;;;;21.87;53.43;99375.23;681776;1269;138906;-82
2023/04/13 11:23:04;;;;;;;25.70;16.90;;;;;;;22.99;50.53;99373.61;681669;1269;138359;-82
2023/04/13 11:38:19;;;;;;;22.50;15.40;;;;;;;22.45;51.15;99381.16;681501;1266;138351;-83
2023/04/13 11:53:22;;;;;;;20.20;14.10;;;;;;;22.10;51.51;99376.77;681546;1268;137821;-82
2023/04/13 12:08:25;;;;;;;22.40;14.50;;;;;;;23.11;49.65;99368.68;681488;1266;138691;-81
2023/04/13 12:23:29;;;;;;;21.90;16.30;;;;;;;23.54;47.51;99369.14;681591;1269;138661;-83
2023/04/13 12:38:33;;;;;;;20.00;14.70;;;;;;;22.70;48.09;99365.39;681694;1269;138172;-81
2023/04/13 12:53:36;;;;;;;18.80;13.80;;;;;;;23.82;48.62;99357.00;681598;1269;138000;-81
2023/04/13 13:08:39;;;;;;;19.10;14.20;;;;;;;24.39;47.42;99354.08;681588;1263;138277;-81
2023/04/13 13:23:44;;;;;;;24.90;14.10;;;;;;;24.41;46.17;99355.98;681694;1269;138566;-83
2023/04/13 13:38:47;;;;;;;19.00;13.90;;;;;;;24.62;46.02;99355.07;681524;1269;138338;-85
2023/04/13 13:53:51;;;;;;;19.90;14.60;;;;;;;24.97;46.33;99362.47;681620;1268;139181;-85
2023/04/13 14:08:54;;;;;;;16.40;13.00;;;;;;;25.07;46.23;99371.95;681505;1270;138154;-87
2023/04/13 14:23:58;;;;;;;27.40;14.70;;;;;;;27.13;44.15;99374.08;681617;1270;138009;-86
2023/04/13 14:39:03;;;;;;;17.80;13.60;;;;;;;29.09;43.23;99375.27;681668;1270;138548;-86
2023/04/13 14:54:07;;;;;;;20.80;17.60;;;;;;;28.38;42.39;99380.54;681667;1268;138264;-86
2023/04/13 15:09:11;;;;;;;17.90;14.30;;;;;;;24.51;45.10;99383.27;681653;1264;138169;-85
2023/04/13 15:24:15;;;;;;;20.70;15.80;;;;;;;23.89;47.49;99384.95;681487;1265;138994;-84
2023/04/13 15:39:18;;;;;;;83.90;46.40;;;;;;;23.50;48.11;99390.27;681676;1266;138693;-86
2023/04/13 15:54:21;;;;;;;26.00;18.10;;;;;;;23.01;48.91;99394.88;681705;1280;138287;-84
2023/04/13 16:09:28;;;;;;;44.40;28.80;;;;;;;22.62;49.25;99403.27;681543;1264;138324;-84
2023/04/13 16:24:32;;;;;;;51.50;32.40;;;;;;;22.19;50.22;99410.55;681634;1268;139196;-84
2023/04/13 16:39:35;;;;;;;58.60;33.60;;;;;;;21.64;51.34;99417.46;681523;1264;138296;-84
2023/04/13 16:54:45;;;;;;;96.70;55.30;;;;;;;20.85;52.70;99431.30;681558;1270;138255;-86
2023/04/13 17:09:49;;;;;;;102.40;55.70;;;;;;;20.39;53.78;99434.30;681463;1267;139155;-86
2023/04/13 17:24:54;;;;;;;218.50;116.20;;;;;;;19.93;54.81;99444.48;681596;1265;139384;-84
2023/04/13 17:39:58;;;;;;;78.20;42.00;;;;;;;19.21;56.37;99464.44;681384;1267;138324;-85
2023/04/13 17:55:02;;;;;;;66.10;39.80;;;;;;;18.95;57.60;99477.84;681586;1267;137435;-86
2023/04/13 18:10:06;;;;;;;73.70;39.80;;;;;;;18.94;58.63;99484.91;681333;1269;139315;-84
2023/04/13 18:25:09;;;;;;;64.40;34.20;;;;;;;18.82;58.99;99501.36;681523;1267;138345;-87
2023/04/13 18:40:13;;;;;;;52.60;32.00;;;;;;;18.83;59.10;99508.19;681392;1266;138553;-84
2023/04/13 18:55:17;;;;;;;50.20;31.00;;;;;;;18.67;59.66;99530.58;681523;1267;139532;-84
2023/04/13 19:10:21;;;;;;;137.50;72.70;;;;;;;18.60;60.19;99543.46;681621;1269;138459;-85
2023/04/13 19:25:24;;;;;;;40.80;25.30;;;;;;;18.40;60.76;99540.48;681704;1279;138445;-85
2023/04/13 19:40:30;;;;;;;75.00;40.10;;;;;;;18.04;61.96;99553.71;681502;1264;138321;-86
2023/04/13 19:55:33;;;;;;;47.90;26.30;;;;;;;17.56;62.92;99555.73;681303;1265;138279;-81
2023/04/13 20:10:37;;;;;;;34.60;20.50;;;;;;;17.29;62.39;99569.86;681458;1264;138439;-84
2023/04/13 20:25:41;;;;;;;154.60;56.90;;;;;;;16.97;62.63;99570.48;681303;1266;139484;-85
2023/04/13 20:40:47;;;;;;;17.20;11.40;;;;;;;16.60;63.05;99571.77;681436;1264;139142;-85
2023/04/13 20:55:50;;;;;;;20.30;13.00;;;;;;;16.23;64.39;99572.48;681408;1266;139062;-84
2023/04/13 21:10:53;;;;;;;16.90;11.10;;;;;;;15.95;65.80;99572.11;681574;1265;139903;-84
2023/04/13 21:25:56;;;;;;;15.20;9.50;;;;;;;15.69;67.82;99583.39;681697;1267;138813;-85
2023/04/13 21:40:59;;;;;;;15.90;8.70;;;;;;;15.59;68.59;99591.13;681932;1263;138711;-84
2023/04/13 21:56:05;;;;;;;16.90;10.20;;;;;;;15.39;68.72;99590.15;681885;1264;138724;-84
2023/04/13 22:11:09;;;;;;;28.80;15.50;;;;;;;15.23;69.39;99600.83;681957;1268;139045;-84
2023/04/13 22:26:12;;;;;;;18.60;11.30;;;;;;;15.07;69.78;99608.26;681772;1266;140235;-83
2023/04/13 22:41:15;;;;;;;17.20;9.40;;;;;;;14.89;70.03;99618.25;681940;1266;139766;-83
2023/04/13 22:56:18;;;;;;;15.00;6.90;;;;;;;14.62;70.90;99620.77;681804;1263;139395;-84
2023/04/13 23:11:21;;;;;;;10.70;7.10;;;;;;;14.37;73.14;99627.81;681839;1268;139113;-83
2023/04/13 23:26:25;;;;;;;14.00;8.90;;;;;;;14.27;73.06;99629.67;681718;1268;138958;-84
2023/04/13 23:41:28;;;;;;;14.50;8.50;;;;;;;14.09;73.70;99625.52;681853;1268;138776;-84
2023/04/13 23:56:32;;;;;;;28.70;16.90;;;;;;;13.91;74.18;99624.24;681576;1269;139750;-84
